Date,TemperatureHighF,TemperatureAvgF,TemperatureLowF,DewpointHighF,DewpointAvgF,DewpointLowF,HumidityHigh,HumidityAvg,HumidityLow,PressureMaxIn,PressureMinIn,WindSpeedMaxMPH,WindSpeedAvgMPH,GustSpeedMaxMPH,PrecipitationSumIn
2013-1-1,40,39,36,40,38,34,97,95,91,30.24,29.63,3,0,6,0.17
2013-1-2,37,34,26,34,31,25,95,91,87,30.32,30.23,3,0,4,0.00
2013-1-3,44,32,23,33,27,21,96,85,61,30.47,30.31,5,0,7,0.01
2013-1-4,46,32,23,34,27,22,96,83,49,30.54,30.39,3,0,6,0.01
2013-1-5,51,39,28,37,33,27,94,80,54,30.39,30.23,4,0,8,0.00
2013-1-6,52,38,28,36,30,26,96,76,44,30.40,30.26,7,1,11,0.00
2013-1-7,50,36,22,34,28,21,95,75,45,30.44,30.20,5,1,9,0.00
2013-1-8,53,41,28,45,36,25,95,81,59,30.25,30.11,7,1,10,0.20
2013-1-9,56,50,46,53,48,44,97,93,78,30.33,30.20,7,1,13,0.34
2013-1-10,59,54,47,58,53,46,97,96,94,30.21,29.84,8,3,15,0.08
2013-1-11,67,52,40,53,47,40,100,83,54,29.97,29.84,8,1,11,0.00
2013-1-12,59,54,50,59,53,48,97,95,91,29.89,29.64,8,1,12,3.50
2013-1-13,42,36,28,35,30,21,92,78,67,30.36,30.06,8,4,14,0.01
2013-1-14,39,29,21,27,21,18,88,72,58,30.47,30.33,9,2,11,0.00
2013-1-15,29,27,24,26,20,17,92,75,65,30.38,30.22,5,2,10,0.00
2013-1-20,58,48,43,36,34,33,74,60,43,30.19,30.13,3,0,6,0.00
2013-1-21,49,40,29,36,23,17,79,53,32,30.38,30.19,9,1,13,0.00
2013-1-22,41,33,25,25,22,19,82,67,49,30.44,30.31,7,1,10,0.00
2013-1-23,58,41,28,41,32,23,91,71,52,30.34,30.16,3,0,7,0.00
2013-1-24,46,39,32,41,28,20,94,66,45,30.39,30.21,14,5,16,0.00
2013-1-25,47,39,31,40,35,25,95,85,74,30.27,30.14,6,1,8,0.00
2013-1-26,52,42,28,39,33,27,96,72,45,30.34,30.22,9,2,13,0.00
2013-1-27,59,51,46,55,47,36,95,85,67,30.23,30.02,7,2,9,0.01
2013-1-28,70,66,57,64,62,55,95,87,81,30.05,29.91,8,2,13,0.01
2013-1-29,70,65,55,66,62,52,96,89,80,29.91,29.46,16,5,24,0.98
2013-1-30,55,43,33,51,36,27,92,76,61,30.09,29.50,14,3,23,0.01
2013-1-31,56,40,25,35,27,12,95,64,35,30.41,30.07,12,2,20,0.00
2013-2-1,40,31,22,22,16,5,72,53,35,30.54,30.27,7,2,12,0.00
2013-2-2,58,40,25,36,29,22,90,66,42,30.29,30.18,4,0,9,0.00
2013-2-3,59,45,31,37,30,24,93,62,27,30.29,30.07,6,1,11,0.00
2013-2-4,50,44,38,48,40,31,96,85,60,30.06,29.88,4,0,7,0.19
2013-2-5,62,45,34,53,43,33,97,91,70,30.06,29.95,1,0,4,0.00
2013-2-6,58,48,36,47,42,35,97,82,65,30.17,30.02,8,2,14,0.02
2013-2-7,61,54,49,56,50,44,96,87,77,30.02,29.86,5,0,10,0.18
2013-2-8,55,47,39,51,39,34,93,75,53,30.28,30.00,10,2,12,0.00
2013-2-9,43,40,36,40,36,32,94,86,77,30.31,29.96,12,5,15,0.12
2013-2-10,68,55,42,60,43,29,97,71,25,30.01,29.70,11,2,16,0.57
2013-2-11,57,47,35,37,33,28,88,62,37,30.20,30.01,6,1,9,0.00
2013-2-12,46,39,32,42,37,30,95,90,80,30.15,29.89,11,2,14,0.14
2013-2-13,51,42,35,40,38,34,95,84,62,30.07,29.93,7,2,11,0.01
2013-2-14,64,46,29,44,36,28,97,72,33,30.11,29.99,7,0,10,0.01
2013-2-15,50,45,36,39,28,17,81,55,41,30.32,30.12,11,4,17,0.00
2013-2-16,44,36,26,31,22,17,83,60,34,30.35,30.21,7,1,15,0.00
2013-2-17,64,47,34,37,29,-100,80,53,34,30.21,29.94,9,-8,13,0.00
2013-2-18,61,41,44,56,9,-100,84,56,62,30.05,29.66,12,-255,19,0.07
2013-2-19,52,42,32,36,26,21,82,55,31,30.32,30.06,12,2,15,0.00
2013-2-20,35,32,30,29,26,19,92,79,53,30.35,30.16,8,2,12,0.00
2013-2-21,34,32,31,33,31,28,96,93,88,30.16,29.78,8,2,15,0.79
2013-2-22,39,34,31,34,30,26,97,85,64,30.14,29.93,7,2,11,0.22
2013-2-23,49,37,26,36,31,24,95,79,47,30.12,29.96,5,1,10,0.06
2013-2-24,56,39,29,39,32,27,94,80,52,30.08,29.97,9,2,13,0.00
2013-2-25,52,46,40,43,41,34,96,84,57,29.75,29.39,18,4,21,0.52
2013-2-26,43,41,39,42,36,33,96,84,75,29.89,29.37,11,3,18,0.00
2013-2-27,48,41,36,35,33,29,85,74,60,30.09,29.87,11,3,17,0.00
2013-2-28,51,40,33,32,30,28,82,67,47,30.18,30.08,10,4,17,0.00
2013-3-1,41,37,33,30,26,21,81,65,56,30.27,30.15,10,4,14,0.00
2013-3-2,44,35,26,26,23,20,82,63,40,30.33,30.24,10,3,13,0.00
2013-3-3,57,41,23,34,28,20,90,64,37,30.26,29.93,11,2,11,0.00
2013-3-4,64,50,41,54,43,33,94,77,68,29.92,29.65,10,3,14,0.00
2013-3-5,53,47,41,50,32,21,95,60,31,30.29,29.73,15,6,23,0.02
2013-3-6,52,41,32,33,25,21,77,55,35,30.43,30.28,10,2,13,0.00
2013-3-7,59,48,38,39,34,31,80,62,42,30.37,30.21,9,2,13,0.00
2013-3-8,63,51,38,42,38,33,83,62,42,30.35,30.14,11,3,13,0.00
2013-3-9,72,61,48,57,50,40,77,67,51,30.13,29.76,12,4,16,0.00
2013-3-10,65,52,39,58,49,33,96,88,74,29.95,29.66,13,3,23,0.66
2013-3-11,50,41,33,34,30,28,85,68,46,30.08,29.93,12,3,17,0.00
2013-3-12,63,46,29,41,34,27,94,67,41,30.31,30.07,7,1,14,0.00
2013-3-13,58,46,32,33,26,20,82,48,23,30.48,30.31,6,1,14,0.00
2013-3-14,72,51,32,44,37,28,90,62,33,30.40,30.13,5,0,7,0.00
2013-3-15,82,62,41,56,47,39,94,62,31,30.14,29.83,8,1,13,0.00
2013-3-16,81,66,52,57,52,47,85,63,39,29.86,29.72,7,1,14,0.00
2013-3-17,64,50,45,54,46,44,96,87,69,29.88,29.69,10,4,16,0.05
2013-3-18,60,51,41,50,45,37,96,84,54,30.07,29.71,8,2,13,0.03
2013-3-19,60,48,35,41,33,27,95,61,29,30.23,30.04,8,1,13,0.00
2013-3-20,57,47,36,36,30,23,83,55,31,30.32,30.12,11,2,18,0.00
2013-3-21,46,38,34,36,26,19,95,64,38,30.13,29.88,12,4,16,0.20
2013-3-22,42,39,35,40,37,33,95,94,91,29.95,29.87,10,3,18,0.25
2013-3-23,44,42,40,43,41,38,96,95,92,29.95,29.72,6,1,9,0.16
2013-3-24,44,40,35,43,35,24,97,81,64,30.12,29.66,16,5,25,0.03
2013-3-25,41,36,31,26,24,21,76,62,52,30.36,30.11,14,6,19,0.00
2013-3-26,49,38,28,30,26,23,85,64,39,30.45,30.34,9,2,13,0.00
2013-3-27,62,45,26,37,31,24,95,64,30,30.41,30.20,8,1,12,0.00
2013-3-28,74,57,44,51,44,37,80,62,44,30.29,30.12,6,1,10,0.00
2013-3-29,62,57,52,58,53,48,95,87,76,30.21,30.11,5,1,22,0.24
2013-3-30,64,58,53,60,55,52,96,91,80,30.15,29.91,6,2,12,0.40
2013-3-31,68,58,50,58,54,48,97,86,60,29.96,29.86,8,1,18,0.17
2013-4-1,73,59,44,56,48,43,97,72,42,30.12,29.95,8,1,11,0.00
2013-4-2,55,46,38,46,38,32,94,74,54,30.25,30.12,9,3,19,0.19
2013-4-3,51,45,38,39,33,30,91,64,45,30.27,30.16,11,2,17,0.01
2013-4-4,48,46,42,45,40,32,93,80,55,30.17,30.06,5,1,9,0.22
2013-4-5,69,52,35,49,41,34,96,70,30,30.22,30.05,4,0,6,0.00
2013-4-6,76,62,46,53,47,41,83,62,38,30.06,29.82,8,2,15,0.00
2013-4-7,74,66,56,61,57,50,83,72,63,29.96,29.81,9,2,12,0.00
2013-4-8,79,69,62,65,60,57,85,74,55,29.87,29.73,10,3,15,0.00
2013-4-9,84,75,66,68,63,58,82,68,50,29.85,29.69,12,4,18,0.00
2013-4-10,82,64,43,70,59,41,95,82,61,29.86,29.66,15,4,28,1.80
2013-4-11,58,47,40,42,38,36,92,74,48,29.86,29.72,9,3,15,0.00
2013-4-12,66,51,35,47,39,34,96,69,35,30.01,29.84,14,1,15,0.00
2013-4-13,68,59,43,52,47,40,91,65,49,30.10,29.84,5,1,10,0.00
2013-4-14,80,66,50,58,54,47,93,68,42,29.85,29.57,13,2,16,0.00
2013-4-15,79,68,59,68,63,57,95,82,64,29.83,29.70,9,2,13,0.00
2013-4-16,88,77,67,71,68,64,93,75,54,29.95,29.79,7,1,11,0.00
2013-4-17,85,78,71,72,69,67,93,76,61,29.95,29.68,11,3,15,0.00
2013-4-18,78,60,46,69,55,36,95,81,67,29.97,29.59,11,4,26,0.39
2013-4-19,58,48,40,36,32,28,87,57,34,30.14,29.97,16,3,20,0.00
2013-4-20,72,54,36,47,41,34,96,66,36,30.25,30.10,6,0,9,0.00
2013-4-21,70,59,48,52,45,39,89,62,37,30.30,30.15,7,2,16,0.07
2013-4-22,76,61,43,54,47,40,93,64,38,30.21,29.93,9,1,13,0.00
2013-4-23,74,61,47,61,53,44,90,77,56,30.05,29.86,8,2,18,0.00
2013-4-24,60,49,41,45,40,37,95,75,44,30.30,30.03,10,2,14,0.31
2013-4-25,71,55,36,47,42,35,96,66,32,30.39,30.24,7,1,9,0.00
2013-4-26,60,55,53,53,50,44,95,82,64,30.30,30.15,9,1,16,0.15
2013-4-27,61,56,53,58,54,51,96,94,89,30.17,29.96,20,2,24,0.25
2013-4-28,73,61,55,61,55,51,92,80,58,30.02,29.89,7,1,8,0.00
2013-4-29,86,68,49,69,59,48,97,75,43,29.95,29.78,5,0,8,0.00
2013-4-30,85,71,56,65,58,53,95,66,34,29.89,29.80,8,1,16,0.00
2013-5-1,78,68,62,69,62,56,92,81,69,30.04,29.86,8,1,11,0.00
2013-5-2,66,59,46,64,57,43,96,94,91,30.15,30.00,10,2,14,0.07
2013-5-3,50,44,39,43,40,35,95,87,57,30.14,29.97,13,3,15,0.15
2013-5-4,50,45,42,45,41,37,92,85,77,29.99,29.89,8,1,13,0.04
2013-5-5,64,52,39,51,44,38,94,75,50,30.07,29.96,8,2,15,0.00
2013-5-6,71,61,53,58,53,49,86,75,56,30.03,29.94,8,2,12,0.00
2013-5-7,81,71,57,61,56,53,89,62,39,30.05,29.95,5,1,8,0.00
2013-5-8,86,70,54,64,59,52,97,71,38,30.04,29.91,6,0,10,0.00
2013-5-9,83,71,64,66,63,59,93,76,50,30.02,29.87,6,1,11,0.00
2013-5-10,81,71,63,67,63,57,96,78,55,30.00,29.86,7,1,13,0.08
2013-5-11,80,69,59,57,53,40,86,60,35,30.15,30.00,10,2,15,0.00
2013-5-12,75,62,47,53,44,35,85,55,28,30.26,30.12,4,1,10,0.00
2013-5-13,86,67,49,57,51,47,96,63,29,30.23,30.03,6,1,9,0.00
2013-5-14,92,74,55,63,56,50,89,57,28,30.09,29.96,3,0,9,0.00
2013-5-15,83,70,60,70,62,54,93,75,60,30.04,29.90,5,0,10,0.00
2013-5-16,69,65,63,68,64,60,97,94,86,29.92,29.82,4,0,9,0.62
2013-5-17,84,73,64,72,68,63,97,84,60,29.91,29.82,4,0,6,0.00
2013-5-18,86,76,69,76,72,68,96,86,67,29.93,29.82,4,0,6,0.00
2013-5-19,89,78,68,72,70,67,97,77,56,29.86,29.72,11,2,16,0.00
2013-5-20,85,78,65,75,70,63,95,77,66,29.94,29.71,6,1,30,0.00
2013-5-21,70,64,61,67,63,60,97,95,86,29.93,29.65,9,1,16,0.00
2013-5-22,82,70,58,69,63,57,97,81,57,29.91,29.81,2,0,6,0.00
2013-5-23,82,71,59,70,65,58,97,82,61,30.10,29.91,1,0,5,0.00
2013-5-24,76,68,60,62,58,54,87,70,55,30.29,30.10,9,1,13,0.00
2013-5-25,84,70,56,67,60,51,87,71,52,30.27,30.07,7,1,8,0.00
2013-5-26,87,74,62,73,66,59,95,78,56,30.12,29.99,5,1,10,0.16
2013-5-27,86,75,65,71,67,63,96,77,53,30.02,29.86,8,1,15,0.00
2013-5-28,87,78,70,70,68,66,88,71,52,29.93,29.82,6,1,12,0.00
2013-5-29,86,78,72,72,69,67,85,74,56,29.93,29.79,7,1,13,0.00
2013-5-30,83,75,71,73,70,68,93,85,71,29.88,29.76,11,2,16,0.11
2013-5-31,89,80,70,77,73,67,96,82,62,29.85,29.66,8,1,11,0.04
2013-6-1,81,70,65,76,67,64,97,92,76,29.93,29.75,9,1,12,0.92
2013-6-2,78,69,60,66,62,58,98,78,56,30.00,29.93,6,1,12,0.00
2013-6-3,83,69,56,65,60,54,96,76,49,30.04,29.90,4,0,8,0.00
2013-6-4,82,72,61,68,64,59,95,77,55,30.01,29.89,4,0,12,0.00
2013-6-5,84,73,63,70,66,62,95,81,58,29.99,29.76,7,1,14,0.00
2013-6-6,80,73,66,68,66,62,95,79,65,29.88,29.80,6,1,8,0.00
2013-6-7,83,73,65,63,60,56,90,66,42,29.93,29.85,8,1,11,0.00
2013-6-8,64,64,63,60,60,59,87,87,87,29.90,29.90,0,0,0,0.00
2013-6-9,87,79,67,74,68,63,87,69,49,29.87,29.79,4,0,6,0.00
2013-6-10,96,78,62,74,68,61,97,73,43,29.91,29.83,4,0,7,0.00
2013-6-11,98,84,68,76,71,66,96,70,44,29.99,29.89,3,0,7,0.00
2013-6-12,96,84,71,76,73,70,96,72,45,30.00,29.87,4,0,8,0.00
2013-6-13,95,84,72,80,74,70,95,73,55,29.96,29.84,5,1,14,0.00
2013-6-14,92,81,72,72,70,68,90,70,49,30.02,29.91,6,1,9,0.00
2013-6-15,92,80,67,72,69,65,95,72,47,30.02,29.91,6,1,12,0.00
2013-6-16,92,79,73,79,73,70,95,83,58,30.01,29.86,6,0,10,0.13
2013-6-17,83,76,71,74,72,69,96,88,65,29.94,29.82,5,0,11,0.08
2013-6-18,88,77,69,73,70,67,96,79,54,29.98,29.87,4,0,9,0.01
2013-6-19,90,78,65,74,69,64,96,77,48,30.02,29.93,6,0,9,0.00
2013-6-20,92,81,68,75,71,66,96,74,52,30.07,29.97,6,1,10,0.00
2013-6-21,95,84,74,79,74,71,92,73,48,30.08,29.97,6,1,8,0.00
2013-6-22,95,82,73,78,73,69,95,76,52,30.06,29.94,8,1,15,0.02
2013-6-23,96,83,71,78,72,69,95,72,47,30.01,29.91,8,1,10,0.00
2013-6-24,94,83,72,76,73,70,96,73,49,30.05,29.93,5,0,10,0.00
2013-6-25,94,83,74,76,72,69,94,72,49,29.99,29.84,6,1,11,0.00
2013-6-26,97,86,74,77,74,71,93,71,51,29.91,29.80,4,0,9,0.00
2013-6-27,100,87,74,80,75,72,96,71,44,29.92,29.80,6,1,10,0.00
2013-6-28,98,88,78,80,72,63,91,62,32,29.86,29.74,9,1,13,0.00
2013-6-29,92,82,68,69,61,55,93,53,29,29.80,29.70,9,2,16,0.00
2013-6-30,83,76,64,65,62,59,87,62,48,29.88,29.75,10,1,12,0.00
2013-7-1,87,77,68,64,60,54,81,59,33,29.97,29.88,7,2,14,0.00
2013-7-2,85,74,59,63,58,53,94,60,34,30.04,29.96,5,0,8,0.00
2013-7-3,90,75,59,63,58,51,93,60,31,30.09,29.97,7,1,8,0.00
2013-7-4,91,76,59,65,60,56,92,60,33,30.04,29.92,5,0,12,0.00
2013-7-5,94,79,60,68,61,57,92,59,29,30.03,29.90,6,1,8,0.00
2013-7-6,92,80,68,73,68,65,91,70,41,30.00,29.90,6,1,10,0.00
2013-7-7,95,82,69,75,70,67,93,68,42,30.03,29.93,6,0,9,0.00
2013-7-8,96,84,74,77,73,69,90,70,45,30.08,29.98,3,0,7,0.00
2013-7-9,101,86,73,75,72,69,93,64,39,30.08,29.93,2,0,8,0.00
2013-7-10,103,83,72,77,72,68,95,73,39,30.00,29.84,5,0,16,0.52
2013-7-11,95,82,71,82,74,69,97,79,48,29.95,29.86,9,0,21,0.00
2013-7-12,90,80,71,72,65,58,79,62,38,30.05,29.93,7,1,10,0.00
2013-7-13,88,76,63,71,64,59,93,68,45,30.04,29.92,5,0,9,0.00
2013-7-14,91,78,63,72,66,61,94,69,45,30.02,29.93,10,1,14,0.00
2013-7-15,93,82,72,76,71,68,90,72,48,30.12,30.00,6,1,13,0.00
2013-7-16,94,83,74,77,73,70,94,73,51,30.21,30.12,8,1,16,0.00
2013-7-17,96,84,72,76,72,68,94,69,44,30.27,30.12,6,1,12,0.00
2013-7-18,102,84,71,76,71,65,95,69,31,30.17,29.98,4,0,10,0.03
2013-7-19,96,78,72,76,72,70,96,83,44,30.04,29.89,8,0,23,0.19
2013-7-20,95,79,71,76,72,70,97,82,46,29.95,29.82,6,0,11,0.00
2013-7-21,90,81,71,76,73,69,95,77,56,29.92,29.81,6,0,8,0.00
2013-7-22,97,82,74,78,72,66,90,73,49,29.95,29.81,2,0,10,0.00
2013-7-23,99,80,71,80,73,69,95,80,48,29.94,29.77,8,1,14,0.44
2013-7-24,89,79,71,76,73,70,96,83,60,29.96,29.78,4,0,9,0.21
2013-7-25,84,78,72,74,70,66,94,76,60,30.06,29.96,4,0,9,0.00
2013-7-26,73,71,67,70,68,66,96,91,85,30.06,29.94,3,0,12,0.18
2013-7-27,89,76,66,74,68,64,97,79,50,30.00,29.89,3,0,8,0.00
2013-7-28,89,77,65,74,67,63,95,74,52,30.02,29.94,5,0,9,0.00
2013-7-29,89,78,69,78,72,64,87,79,67,30.08,29.98,9,2,12,0.00
2013-7-30,90,81,76,78,75,72,95,83,64,30.04,29.96,3,0,6,0.00
2013-7-31,97,81,73,81,75,72,96,85,57,30.03,29.91,3,0,13,0.26
2013-8-1,94,81,72,77,73,70,96,79,50,30.04,29.93,4,0,6,0.00
2013-8-2,90,81,71,80,75,69,94,82,69,29.98,29.87,5,1,9,0.00
2013-8-3,90,80,72,78,75,70,95,85,64,30.10,29.88,10,0,13,0.03
2013-8-4,92,78,72,80,74,71,96,88,65,30.09,29.97,5,0,9,0.58
2013-8-5,95,82,74,83,78,73,97,86,64,30.02,29.83,3,0,7,0.00
2013-8-6,95,85,76,84,78,74,96,80,60,29.89,29.78,7,1,10,0.00
2013-8-7,93,84,74,80,77,73,95,80,62,29.90,29.79,5,0,14,0.00
2013-8-8,97,84,74,82,76,70,95,79,58,29.93,29.79,14,1,17,0.03
2013-8-9,91,79,73,80,74,72,96,85,67,29.99,29.88,3,0,9,0.78
2013-8-10,91,79,73,80,75,72,97,88,67,30.06,29.95,6,0,10,0.89
2013-8-11,90,77,72,80,74,71,97,92,70,30.07,29.99,4,0,6,0.02
2013-8-12,94,78,72,81,74,71,97,89,62,30.01,29.92,12,0,24,0.03
2013-8-13,84,76,73,76,73,71,97,92,76,30.03,29.91,1,0,7,0.15
2013-8-14,83,74,65,72,65,58,96,74,50,30.10,29.99,4,0,12,0.00
2013-8-15,82,69,57,64,59,55,97,74,47,30.12,29.99,2,0,7,0.00
2013-8-16,77,67,58,65,61,57,96,83,60,30.09,30.03,3,0,7,0.00
2013-8-17,84,72,62,70,65,60,95,78,57,30.09,30.00,3,0,9,0.00
2013-8-18,87,75,64,71,67,63,96,78,56,30.11,30.02,7,1,10,0.00
2013-8-19,89,75,63,72,67,62,97,77,50,30.10,29.97,4,0,8,0.00
2013-8-20,92,78,64,74,68,63,97,75,43,30.08,29.98,4,0,7,0.00
2013-8-21,94,80,66,75,69,65,97,74,42,30.10,30.00,3,0,5,0.00
2013-8-22,96,83,70,79,71,67,96,70,40,30.09,29.95,1,0,9,0.00
2013-8-23,96,81,70,78,73,68,96,79,49,30.05,29.95,4,0,11,0.04
2013-8-24,96,83,71,77,73,70,97,75,50,30.11,30.01,7,1,11,0.00
2013-8-25,94,84,73,78,74,71,95,74,51,30.18,30.09,7,1,13,0.00
2013-8-26,94,82,73,77,73,69,96,75,48,30.20,30.06,7,0,9,0.00
2013-8-27,96,81,67,74,69,66,96,71,42,30.11,29.99,4,0,7,0.00
2013-8-28,99,84,69,74,70,67,93,67,42,30.06,29.96,3,0,5,0.00
2013-8-29,101,85,70,74,72,68,96,68,39,30.05,29.93,2,0,5,0.00
2013-8-30,102,86,71,77,73,69,95,69,38,29.98,29.85,2,0,6,0.00
2013-8-31,103,84,72,77,72,69,95,72,34,29.89,29.78,4,0,12,0.05
2013-9-1,101,81,72,78,73,70,96,79,42,29.87,29.74,9,0,9,0.04
2013-9-2,94,81,73,79,74,68,96,80,56,29.92,29.83,7,0,9,0.05
2013-9-3,94,80,67,72,68,64,95,68,42,30.01,29.90,6,0,8,0.00
2013-9-4,94,78,63,67,62,55,95,63,32,30.12,30.01,6,0,11,0.00
2013-9-5,93,77,60,70,63,59,96,66,39,30.16,30.04,5,0,15,0.00
2013-9-6,94,78,61,71,63,55,96,64,29,30.13,29.98,5,0,8,0.00
2013-9-7,100,83,68,72,68,64,94,65,31,30.03,29.89,2,0,14,0.00
2013-9-8,102,84,68,74,69,66,94,64,33,29.96,29.84,4,0,7,0.00
2013-9-9,100,84,69,74,69,65,96,65,35,29.98,29.89,6,0,10,0.00
2013-9-10,100,82,66,72,67,64,95,65,34,30.10,29.96,5,0,16,0.00
2013-9-11,99,82,70,74,71,68,93,71,38,30.11,30.01,6,1,11,0.00
2013-9-12,96,80,69,79,72,68,97,80,45,30.05,29.93,7,0,10,0.01
2013-9-13,90,77,65,72,62,55,95,64,37,30.04,29.91,7,0,12,0.02
2013-9-14,83,69,54,60,55,52,96,64,35,30.08,29.97,7,1,13,0.00
2013-9-15,90,71,52,63,57,49,95,64,36,30.08,29.98,3,0,6,0.00
2013-9-16,94,79,64,68,63,58,87,60,41,30.14,30.02,7,1,9,0.00
2013-9-17,88,76,64,70,66,62,93,72,46,30.13,29.97,7,1,10,0.00
2013-9-18,79,75,72,68,67,65,87,78,69,30.03,29.95,2,0,5,0.00
2013-9-19,93,80,72,76,72,68,96,79,52,30.01,29.86,5,0,11,0.07
2013-9-20,75,71,67,73,69,61,97,94,81,29.92,29.83,3,0,8,0.27
2013-9-21,82,68,56,61,53,43,92,63,26,29.95,29.86,7,1,9,0.04
2013-9-22,81,66,49,58,53,48,96,68,38,29.97,29.84,5,1,10,0.00
2013-9-23,82,68,52,60,56,50,96,69,43,29.93,29.80,10,1,14,0.00
2013-9-24,87,74,58,64,60,55,96,65,35,29.88,29.76,8,1,12,0.00
2013-9-25,84,71,58,64,60,56,96,72,48,29.85,29.78,6,0,11,0.00
2013-9-26,89,72,56,66,60,54,97,70,35,29.95,29.84,5,0,9,0.00
2013-9-27,90,74,60,69,63,58,97,71,42,30.02,29.91,8,1,13,0.00
2013-9-28,91,75,68,71,68,64,97,80,48,30.01,29.89,9,1,14,0.02
2013-9-29,80,72,69,71,69,67,97,90,75,29.99,29.89,4,0,6,0.03
2013-9-30,82,73,68,71,69,66,96,87,66,29.93,29.84,5,0,10,0.01
2013-10-1,86,76,70,74,71,69,97,86,62,29.99,29.88,7,0,8,0.00
2013-10-2,88,76,70,75,70,68,96,83,56,30.03,29.91,6,1,11,0.00
2013-10-3,88,77,69,75,70,67,95,81,58,29.96,29.85,6,1,9,0.00
2013-10-4,92,79,68,75,70,65,97,78,41,29.94,29.85,8,1,10,0.00
2013-10-5,82,69,54,75,66,53,96,90,79,30.03,29.88,12,1,16,0.00
2013-10-6,68,58,49,55,50,47,97,77,50,30.03,29.93,5,1,12,0.00
2013-10-7,75,60,47,55,49,46,97,72,39,30.12,30.00,7,0,10,0.00
2013-10-8,76,60,45,55,49,44,97,71,36,30.17,30.04,9,1,11,0.00
2013-10-9,78,61,45,57,51,44,97,73,43,30.14,30.02,4,0,7,0.00
2013-10-10,81,65,48,62,56,47,97,76,47,30.12,29.95,4,0,9,0.00
2013-10-11,83,68,57,68,62,56,97,80,54,30.01,29.87,9,1,14,0.00
2013-10-12,83,72,65,71,66,61,96,82,63,30.11,29.92,4,0,8,0.00
2013-10-13,81,70,61,64,59,54,96,71,49,30.27,30.11,8,1,12,0.00
2013-10-14,72,64,55,63,57,51,92,79,62,30.22,30.01,5,0,8,0.00
2013-10-15,68,66,61,67,64,60,97,96,91,30.01,29.90,4,0,6,0.00
2013-10-16,62,57,54,60,54,52,97,89,73,30.08,29.97,6,1,11,0.00
2013-10-17,68,58,48,55,51,47,97,80,52,30.08,29.97,5,0,11,0.00
2013-10-18,71,56,42,58,51,41,97,85,52,30.07,29.95,3,0,7,0.00
2013-10-19,60,53,42,55,45,40,94,77,51,30.13,29.98,7,1,13,0.00
2013-10-20,71,52,37,49,43,36,97,75,38,30.09,29.92,5,0,8,0.00
2013-10-21,70,56,46,56,51,44,100,85,55,30.08,29.96,6,0,13,0.00
2013-10-22,67,53,43,54,49,42,97,87,54,30.12,29.93,4,0,7,0.00
2013-10-23,66,53,42,48,44,39,97,76,39,30.18,30.02,4,0,7,0.00
2013-10-24,64,54,44,47,42,34,95,68,44,30.40,30.08,7,1,11,0.00
2013-10-25,58,46,35,37,34,30,94,66,37,30.54,30.31,6,1,12,0.00
2013-10-26,63,50,39,53,45,36,96,84,56,30.30,30.11,3,0,5,0.00
2013-10-27,63,57,52,57,54,51,97,90,78,30.11,30.01,4,0,5,0.00
2013-10-28,66,59,54,61,57,53,97,93,82,30.19,30.04,2,0,6,0.00
2013-10-29,79,66,58,70,62,56,97,87,66,30.18,30.03,5,0,9,0.00
2013-10-30,75,67,63,68,64,62,96,89,70,30.06,29.88,5,1,9,0.00
2013-10-31,78,66,50,69,60,48,98,84,43,29.88,29.49,8,1,19,0.00
2013-11-1,73,57,43,55,47,42,97,73,34,29.97,29.80,5,0,11,0.00
2013-11-2,62,54,40,47,42,38,91,67,45,30.24,29.98,12,2,14,0.00
2013-11-3,64,49,34,46,40,33,97,76,45,30.29,30.09,8,1,13,0.00
2013-11-4,58,53,48,53,48,43,97,86,70,30.21,30.11,7,1,9,0.00
2013-11-5,65,59,54,61,57,53,97,93,84,30.19,29.99,5,1,10,0.00
2013-11-6,64,55,39,64,53,36,98,91,79,30.35,29.94,8,2,22,0.00
2013-11-7,60,46,34,46,40,33,97,83,51,30.49,30.34,3,0,5,0.00
2013-11-8,66,50,35,48,42,34,97,76,43,30.39,30.17,6,1,10,0.00
2013-11-9,65,53,45,52,48,42,94,83,59,30.27,30.16,4,0,8,0.00
2013-11-10,70,56,47,52,48,44,94,76,46,30.36,30.27,6,0,9,0.00
2013-11-11,69,54,41,53,47,40,97,79,47,30.31,30.17,2,0,5,0.00
2013-11-12,59,44,29,53,30,18,84,59,32,30.71,30.26,14,4,20,0.00
2013-11-13,47,34,23,28,23,16,92,67,30,30.74,30.43,3,0,5,0.03
2013-11-14,56,41,24,36,29,21,94,67,34,30.42,30.10,3,0,7,0.10
2013-11-15,53,48,44,52,45,36,95,89,69,30.10,29.94,5,0,8,0.05
2013-11-16,72,64,53,68,60,51,96,88,71,29.95,29.69,11,2,16,0.03
2013-11-17,83,71,52,71,58,39,95,67,36,30.04,29.62,10,2,19,0.07
2013-11-18,69,53,42,42,36,31,83,56,27,30.25,30.05,7,2,12,0.00
2013-11-19,56,47,39,39,34,32,87,64,42,30.31,30.15,10,1,14,0.00
2013-11-20,63,50,39,40,35,32,77,58,31,30.17,29.97,7,2,12,0.00
2013-11-21,56,55,52,56,49,40,97,83,57,30.17,30.04,9,1,9,0.26
2013-11-22,57,47,40,56,44,37,97,89,80,30.47,30.14,8,3,14,0.09
2013-11-23,46,40,32,37,29,16,93,68,39,30.64,30.46,10,3,17,0.02
2013-11-24,33,30,24,22,16,14,67,57,49,30.71,30.44,6,2,10,0.00
2013-11-25,34,32,31,33,28,18,96,84,57,30.44,30.20,6,1,10,0.01
2013-11-26,51,40,33,38,33,23,96,78,52,30.27,30.04,12,2,19,0.01
2013-11-27,41,32,22,24,18,14,85,58,36,30.44,30.27,10,2,18,0.00
2013-11-28,51,33,19,30,24,17,94,72,36,30.48,30.37,3,0,4,0.00
2013-11-29,58,39,23,38,30,21,96,74,41,30.56,30.39,3,0,7,0.00
2013-11-30,59,43,28,45,36,26,95,81,54,30.39,30.19,8,0,9,0.00
2013-12-1,62,53,40,53,48,39,96,85,71,30.18,29.88,2,0,5,0.00
2013-12-2,64,53,45,56,50,44,97,90,73,29.88,29.67,2,0,5,0.00
2013-12-3,56,52,44,55,51,43,100,97,96,29.70,29.59,7,1,10,0.01
2013-12-4,73,60,49,61,54,43,98,82,52,29.87,29.62,6,1,13,0.00
2013-12-5,49,38,33,44,35,31,96,87,70,30.22,29.87,8,3,13,0.46
2013-12-6,33,28,25,32,26,22,96,92,88,30.54,30.16,9,3,13,0.08
2013-12-7,28,24,18,23,20,15,89,84,80,30.66,30.36,5,2,9,0.04
2013-12-8,31,28,24,30,26,21,96,93,87,30.36,30.09,7,0,10,0.00
2013-12-9,33,32,28,31,29,25,97,90,85,30.35,30.20,5,0,8,0.01
2013-12-10,35,29,24,30,26,21,95,88,78,30.51,30.33,5,1,7,0.03
2013-12-11,41,30,23,36,28,22,97,94,81,30.64,30.38,4,0,6,0.04
2013-12-12,40,29,19,29,24,17,96,83,60,30.67,30.38,5,0,5,0.06
2013-12-13,41,35,26,36,32,24,97,89,72,30.37,29.91,5,0,9,0.08
2013-12-14,43,38,34,41,35,30,97,90,80,30.25,29.85,11,2,14,0.01
2013-12-15,48,36,27,36,30,25,96,82,61,30.33,30.20,4,0,7,0.00
2013-12-16,62,42,27,42,35,26,96,80,46,30.23,30.09,4,0,5,0.00
2013-12-17,64,44,30,43,36,29,96,77,38,30.31,30.17,7,0,10,0.00
2013-12-18,63,46,29,43,36,27,95,71,44,30.32,30.05,5,0,9,0.00
2013-12-19,65,57,45,59,50,40,87,78,70,30.05,29.80,11,2,16,0.00
2013-12-20,74,61,43,64,56,42,96,85,73,29.85,29.72,15,1,15,0.43
2013-12-21,46,43,40,46,43,39,100,97,96,29.75,29.49,8,1,15,1.78
2013-12-22,44,38,33,43,34,27,97,86,75,30.35,29.73,8,3,18,0.01
2013-12-23,39,34,29,29,27,25,89,76,63,30.58,30.36,6,1,9,0.00
2013-12-24,39,30,21,27,24,19,95,79,59,30.62,30.40,9,2,11,0.00
2013-12-25,50,35,26,36,30,23,96,81,59,30.42,30.32,4,0,9,0.00
2013-12-26,49,34,25,38,30,24,97,85,56,30.49,30.36,1,0,5,0.00
2013-12-27,57,38,24,41,31,23,96,78,42,30.48,30.35,3,0,5,0.01
2013-12-28,49,36,27,39,32,25,97,87,67,30.35,30.00,1,0,5,0.00
2013-12-29,54,41,31,42,35,24,96,81,63,30.27,29.99,7,2,15,0.00
2013-12-30,34,31,26,27,24,22,92,76,67,30.41,30.25,6,0,6,0.00
2013-12-31,30,29,28,27,26,26,91,88,86,30.41,30.40,3,1,6,0.00